Time;durP1;ratioP1;P1;durP2;ratioP2;P2;SDS_P1;SDS_P2;PMS_P1;PMS_P2;Temp;Humidity;BMP_temperature;BMP_pressure;BME280_temperature;BME280_humidity;BME280_pressure;Samples;Min_cycle;Max_cycle;Signal;HPM_P1;HPM_P2
2023/06/03 00:00:18;;;;;;;;;;;;;;;20.07;38.70;101414.78;4114426;28;20017;-52
2023/06/03 00:02:20;;;;;;;;;;;;;;;20.06;39.04;101410.38;4114605;28;20203;-52
2023/06/03 00:04:22;;;;;;;;;;;;;;;20.05;38.98;101414.00;4114541;28;19936;-53
2023/06/03 00:06:24;;;;;;;;;;;;;;;20.05;38.77;101418.47;4113383;28;19953;-54
2023/06/03 00:08:26;;;;;;;;;;;;;;;20.04;38.99;101412.28;4114490;28;19934;-51
2023/06/03 00:10:27;;;;;;;;;;;;;;;20.04;38.93;101408.75;4114667;28;20303;-52
2023/06/03 00:12:29;;;;;;;;;;;;;;;20.03;38.90;101405.22;4114216;28;20033;-53
2023/06/03 00:14:31;;;;;;;;;;;;;;;20.02;38.86;101406.16;4114063;28;19930;-53
2023/06/03 00:16:33;;;;;;;;;;;;;;;20.02;39.15;101403.50;4113391;28;19927;-55
2023/06/03 00:18:34;;;;;;;;;;;;;;;20.02;39.15;101403.50;4114332;28;19951;-51
2023/06/03 00:20:36;;;;;;;;;;;;;;;20.01;39.05;101407.13;4114272;28;19926;-52
2023/06/03 00:22:38;;;;;;;;;;;;;;;20.01;39.11;101404.44;4114221;28;20444;-54
2023/06/03 00:24:39;;;;;;;;;;;;;;;20.00;39.16;101400.09;4114185;28;19930;-50
2023/06/03 00:26:41;;;;;;;;;;;;;;;20.00;39.01;101402.75;4113370;28;19926;-51
2023/06/03 00:28:43;;;;;;;;;;;;;;;19.99;39.24;101403.72;4144878;28;19933;-52
2023/06/03 00:30:44;;;;;;;;;;;;;;;19.99;39.19;101405.50;4114023;28;20307;-51
2023/06/03 00:32:46;;;;;;;;;;;;;;;19.99;39.00;101408.19;4114168;28;20305;-54
2023/06/03 00:34:47;;;;;;;;;;;;;;;19.97;38.99;101400.28;4125847;28;19971;-52
2023/06/03 00:36:49;;;;;;;;;;;;;;;19.97;39.31;101405.63;4129380;28;19926;-54
2023/06/03 00:38:51;;;;;;;;;;;;;;;19.98;39.39;101406.47;4120849;28;19926;-52
2023/06/03 00:40:52;;;;;;;;;;;;;;;19.96;39.28;101393.22;4112962;28;19926;-52
2023/06/03 00:42:54;;;;;;;;;;;;;;;19.95;39.39;101395.06;4114138;28;20391;-53
2023/06/03 00:44:55;;;;;;;;;;;;;;;19.97;39.35;101394.09;4113633;28;19956;-52
2023/06/03 00:46:57;;;;;;;;;;;;;;;19.95;39.30;101388.84;4113062;28;20285;-53
2023/06/03 00:48:59;;;;;;;;;;;;;;;19.94;39.23;101388.00;4113946;28;19933;-52
2023/06/03 00:51:00;;;;;;;;;;;;;;;19.94;39.06;101392.47;4113985;28;20424;-51
2023/06/03 00:53:02;;;;;;;;;;;;;;;19.92;39.44;101383.72;4113938;28;19937;-54
2023/06/03 00:55:04;;;;;;;;;;;;;;;19.92;39.40;101389.06;4113346;28;19930;-53
2023/06/03 00:57:06;;;;;;;;;;;;;;;19.92;39.37;101386.38;4113528;28;19968;-51
2023/06/03 00:59:08;;;;;;;;;;;;;;;19.92;39.37;101386.38;4113649;28;19969;-51
2023/06/03 01:01:10;;;;;;;;;;;;;;;19.91;39.25;101382.84;4113675;28;19934;-51
2023/06/03 01:03:13;;;;;;;;;;;;;;;19.90;39.49;101380.28;4113158;28;20023;-53
2023/06/03 01:05:15;;;;;;;;;;;;;;;19.90;39.54;101380.28;4112835;28;19949;-48
2023/06/03 01:07:23;;;;;;;;;;;;;;;19.88;39.48;101380.38;4144461;28;19956;-54
2023/06/03 01:09:31;;;;;;;;;;;;;;;19.88;39.38;101377.72;4113685;28;19930;-52
2023/06/03 01:11:35;;;;;;;;;;;;;;;19.87;39.38;101370.66;4113647;28;19926;-53
2023/06/03 01:13:41;;;;;;;;;;;;;;;19.87;39.46;101378.66;4113525;28;20005;-52
2023/06/03 01:15:44;;;;;;;;;;;;;;;19.85;39.60;101369.88;4112521;28;20017;-54
2023/06/03 01:17:47;;;;;;;;;;;;;;;19.86;39.76;101370.75;4113520;28;19926;-50
2023/06/03 01:19:50;;;;;;;;;;;;;;;19.85;39.66;101367.22;4113734;28;19926;-52
2023/06/03 01:21:53;;;;;;;;;;;;;;;19.84;39.77;101368.16;4113463;28;19934;-51
2023/06/03 01:23:56;;;;;;;;;;;;;;;19.84;39.61;101362.00;4113677;28;19968;-52
2023/06/03 01:25:57;;;;;;;;;;;;;;;19.84;39.69;101365.50;4112331;28;19926;-53
2023/06/03 01:28:00;;;;;;;;;;;;;;;19.84;39.77;101367.31;4113020;28;19988;-49
2023/06/03 01:30:02;;;;;;;;;;;;;;;19.83;39.68;101368.25;4113211;28;20285;-53
2023/06/03 01:32:06;;;;;;;;;;;;;;;19.83;39.68;101368.25;4113578;28;19926;-53
2023/06/03 01:34:07;;;;;;;;;;;;;;;19.81;39.84;101365.69;4119750;28;19984;-52
2023/06/03 01:36:09;;;;;;;;;;;;;;;19.82;39.84;101363.84;4128459;28;20020;-51
2023/06/03 01:38:11;;;;;;;;;;;;;;;19.80;39.92;101366.63;4125197;28;19930;-50
2023/06/03 01:40:13;;;;;;;;;;;;;;;19.80;39.84;101364.81;4113489;28;19945;-53
2023/06/03 01:42:14;;;;;;;;;;;;;;;19.80;39.79;101363.97;4113059;28;20462;-53
2023/06/03 01:44:16;;;;;;;;;;;;;;;19.78;39.92;101366.75;4113392;28;20277;-51
2023/06/03 01:46:17;;;;;;;;;;;;;;;19.77;39.75;101362.34;4110835;28;19933;-51
2023/06/03 01:48:19;;;;;;;;;;;;;;;19.79;39.86;101363.13;4113332;28;19926;-50
2023/06/03 01:50:23;;;;;;;;;;;;;;;19.78;39.91;101365.88;4113155;28;20370;-49
2023/06/03 01:52:26;;;;;;;;;;;;;;;19.77;39.89;101365.03;4128307;28;19932;-48
2023/06/03 01:54:28;;;;;;;;;;;;;;;19.78;39.92;101365.88;4113269;28;19926;-52
2023/06/03 01:56:29;;;;;;;;;;;;;;;19.76;39.90;101363.31;4111598;28;19926;-50
2023/06/03 01:58:31;;;;;;;;;;;;;;;19.77;39.74;101358.84;4113341;28;19948;-52
2023/06/03 02:00:32;;;;;;;;;;;;;;;19.76;39.80;101371.31;4113144;28;19949;-54
2023/06/03 02:02:35;;;;;;;;;;;;;;;19.75;39.80;101361.59;4113323;28;20422;-53
2023/06/03 02:04:37;;;;;;;;;;;;;;;19.74;40.09;101361.69;4112977;28;19926;-51
2023/06/03 02:06:38;;;;;;;;;;;;;;;19.74;39.94;101364.34;4111954;28;19934;-50
2023/06/03 02:08:40;;;;;;;;;;;;;;;19.73;40.01;101365.31;4113070;28;19930;-51
2023/06/03 02:10:41;;;;;;;;;;;;;;;19.73;40.07;101363.50;4112576;28;20342;-50
2023/06/03 02:12:43;;;;;;;;;;;;;;;19.72;40.07;101367.13;4112986;28;19929;-50
2023/06/03 02:14:44;;;;;;;;;;;;;;;19.72;40.07;101364.47;4111670;28;19926;-52
2023/06/03 02:16:48;;;;;;;;;;;;;;;19.70;40.02;101368.19;4111802;28;19961;-52
2023/06/03 02:18:49;;;;;;;;;;;;;;;19.70;39.93;101358.38;4113030;28;19926;-50
2023/06/03 02:20:52;;;;;;;;;;;;;;;19.69;40.12;101356.63;4113077;28;20029;-50
2023/06/03 02:22:53;;;;;;;;;;;;;;;19.68;40.17;101357.59;4112982;28;19927;-51
2023/06/03 02:24:57;;;;;;;;;;;;;;;19.70;40.13;101365.53;4112494;28;19926;-50
2023/06/03 02:27:03;;;;;;;;;;;;;;;19.69;40.12;101361.13;4111595;28;19948;-52
2023/06/03 02:29:08;;;;;;;;;;;;;;;19.69;40.12;101366.47;4112649;28;19930;-54
2023/06/03 02:31:10;;;;;;;;;;;;;;;19.68;40.16;101367.44;4112750;28;20446;-51
2023/06/03 02:33:11;;;;;;;;;;;;;;;19.68;40.24;101354.09;4112901;28;19957;-49
2023/06/03 02:35:14;;;;;;;;;;;;;;;19.67;40.01;101355.88;4127992;28;19961;-51
2023/06/03 02:37:16;;;;;;;;;;;;;;;19.67;40.20;101357.69;4127664;28;20493;-49
2023/06/03 02:39:18;;;;;;;;;;;;;;;19.67;40.24;101357.69;4115753;28;19980;-52
2023/06/03 02:41:19;;;;;;;;;;;;;;;19.66;40.30;101351.53;4112565;28;19933;-52
2023/06/03 02:43:21;;;;;;;;;;;;;;;19.66;40.12;101353.31;4112686;28;19930;-49
2023/06/03 02:45:22;;;;;;;;;;;;;;;19.64;40.26;101354.25;4112408;28;20016;-51
2023/06/03 02:47:24;;;;;;;;;;;;;;;19.64;40.13;101351.59;4111928;28;19926;-52
2023/06/03 02:49:25;;;;;;;;;;;;;;;19.63;40.15;101360.53;4112460;28;19957;-49
2023/06/03 02:51:27;;;;;;;;;;;;;;;19.64;40.35;101362.28;4112598;28;20435;-53
2023/06/03 02:53:28;;;;;;;;;;;;;;;19.63;40.31;101360.53;4112870;28;19926;-50
2023/06/03 02:55:33;;;;;;;;;;;;;;;19.62;40.35;101356.19;4111780;28;19926;-55
2023/06/03 02:57:34;;;;;;;;;;;;;;;19.62;40.12;101361.53;4112258;28;20017;-51
2023/06/03 02:59:36;;;;;;;;;;;;;;;19.62;40.16;101363.31;4112508;28;19926;-53
2023/06/03 03:01:38;;;;;;;;;;;;;;;19.61;40.09;101356.28;4112502;28;19930;-51
2023/06/03 03:03:40;;;;;;;;;;;;;;;19.60;40.30;101352.75;4112709;28;19926;-51
2023/06/03 03:05:42;;;;;;;;;;;;;;;19.60;40.44;101351.88;4111467;28;20023;-50
2023/06/03 03:07:44;;;;;;;;;;;;;;;19.59;40.21;101348.38;4112364;28;19956;-52
2023/06/03 03:09:46;;;;;;;;;;;;;;;19.58;40.13;101343.97;4111044;28;20380;-53
2023/06/03 03:11:47;;;;;;;;;;;;;;;19.59;40.15;101350.19;4112290;28;20026;-51
2023/06/03 03:13:49;;;;;;;;;;;;;;;19.59;40.34;101352.88;4112096;28;19961;-55
2023/06/03 03:15:50;;;;;;;;;;;;;;;19.59;40.42;101352.88;4111375;28;19930;-53
2023/06/03 03:17:52;;;;;;;;;;;;;;;19.58;40.33;101354.66;4094705;29;19966;-54
2023/06/03 03:19:54;;;;;;;;;;;;;;;19.58;40.53;101345.81;4112318;28;19934;-53
2023/06/03 03:21:56;;;;;;;;;;;;;;;19.57;40.34;101346.75;4112200;28;19949;-53
2023/06/03 03:23:58;;;;;;;;;;;;;;;19.57;40.36;101346.75;4111842;28;20319;-49
2023/06/03 03:26:00;;;;;;;;;;;;;;;19.57;40.35;101352.09;4112845;28;20030;-54
2023/06/03 03:28:02;;;;;;;;;;;;;;;19.56;40.54;101343.25;4115088;28;20017;-53
2023/06/03 03:30:04;;;;;;;;;;;;;;;19.54;40.70;101342.47;4114685;28;20280;-53
2023/06/03 03:32:07;;;;;;;;;;;;;;;19.54;40.57;101350.47;4115074;28;19948;-53
2023/06/03 03:34:09;;;;;;;;;;;;;;;19.55;40.57;101356.66;4121406;28;19934;-53
2023/06/03 03:36:20;;;;;;;;;;;;;;;19.53;40.57;101356.75;4130094;28;19929;-51
2023/06/03 03:38:21;;;;;;;;;;;;;;;19.53;40.49;101354.09;4125033;28;19998;-53
2023/06/03 03:40:25;;;;;;;;;;;;;;;19.53;40.52;101355.94;4114839;28;20022;-52
2023/06/03 03:42:26;;;;;;;;;;;;;;;19.53;40.53;101353.25;4114881;28;19926;-51
2023/06/03 03:44:29;;;;;;;;;;;;;;;19.52;40.64;101355.06;4113407;28;19984;-51
2023/06/03 03:46:31;;;;;;;;;;;;;;;19.52;40.43;101351.53;4113496;28;20475;-54
2023/06/03 03:48:33;;;;;;;;;;;;;;;19.52;40.59;101356.88;4114737;28;19977;-54
2023/06/03 03:50:40;;;;;;;;;;;;;;;19.51;40.57;101356.00;4114751;28;20391;-54
2023/06/03 03:52:42;;;;;;;;;;;;;;;19.51;40.54;101360.50;4114444;28;19926;-53
2023/06/03 03:54:44;;;;;;;;;;;;;;;19.50;40.60;101364.94;4114835;28;19971;-49
2023/06/03 03:56:54;;;;;;;;;;;;;;;19.51;40.55;101364.00;4113570;28;20450;-53
2023/06/03 03:58:56;;;;;;;;;;;;;;;19.50;40.52;101364.09;4114491;28;20396;-49
2023/06/03 04:01:00;;;;;;;;;;;;;;;19.50;40.53;101367.63;4114761;28;19926;-52
2023/06/03 04:03:04;;;;;;;;;;;;;;;19.49;40.59;101365.94;4145736;28;20020;-52
2023/06/03 04:05:05;;;;;;;;;;;;;;;19.49;40.75;101365.94;4114284;28;19972;-52
2023/06/03 04:07:08;;;;;;;;;;;;;;;19.49;40.51;101373.94;4113184;28;19926;-53
2023/06/03 04:09:10;;;;;;;;;;;;;;;19.49;40.57;101368.59;4114620;28;19972;-54
2023/06/03 04:11:17;;;;;;;;;;;;;;;19.48;40.42;101366.88;4114575;28;19965;-56
2023/06/03 04:13:19;;;;;;;;;;;;;;;19.47;40.56;101368.66;4114559;28;19933;-53
2023/06/03 04:15:24;;;;;;;;;;;;;;;19.46;40.67;101366.94;4114226;28;19952;-51
2023/06/03 04:17:35;;;;;;;;;;;;;;;19.45;40.63;101365.25;4113584;28;20395;-50
2023/06/03 04:19:42;;;;;;;;;;;;;;;19.47;40.45;101367.81;4114369;28;19930;-49
2023/06/03 04:21:48;;;;;;;;;;;;;;;19.45;40.66;101365.25;4114002;28;19926;-50
2023/06/03 04:23:55;;;;;;;;;;;;;;;19.45;40.55;101354.59;4114194;28;19932;-50
2023/06/03 04:25:58;;;;;;;;;;;;;;;19.45;40.75;101361.72;4113293;28;19933;-48
2023/06/03 04:28:00;;;;;;;;;;;;;;;19.34;40.80;101346.38;4114195;28;20261;-51
2023/06/03 04:30:06;;;;;;;;;;;;;;;19.43;40.79;101361.84;4114038;28;20391;-51
2023/06/03 04:32:08;;;;;;;;;;;;;;;19.44;40.64;101358.22;4114393;28;19926;-46
2023/06/03 04:34:14;;;;;;;;;;;;;;;19.43;40.82;101358.28;4121581;28;19926;-50
2023/06/03 04:36:16;;;;;;;;;;;;;;;19.44;40.74;101362.66;4128628;28;19926;-54
2023/06/03 04:38:17;;;;;;;;;;;;;;;19.43;40.67;101364.50;4124138;28;19933;-49
2023/06/03 04:40:19;;;;;;;;;;;;;;;19.43;40.62;101363.63;4114121;28;19926;-49
2023/06/03 04:42:21;;;;;;;;;;;;;;;19.44;40.80;101373.34;4114215;28;19926;-52
2023/06/03 04:44:28;;;;;;;;;;;;;;;19.42;40.78;101368.13;4114029;28;19969;-53
2023/06/03 04:46:30;;;;;;;;;;;;;;;19.42;40.65;101373.44;4112712;28;19926;-51
2023/06/03 04:48:31;;;;;;;;;;;;;;;19.42;40.69;101381.44;4114010;28;19937;-52
2023/06/03 04:50:35;;;;;;;;;;;;;;;19.42;40.72;101385.94;4113811;28;20028;-53
2023/06/03 04:52:37;;;;;;;;;;;;;;;19.41;40.77;101387.72;4114036;28;20047;-50
2023/06/03 04:54:40;;;;;;;;;;;;;;;19.40;40.64;101374.50;4113917;28;19932;-52
2023/06/03 04:56:47;;;;;;;;;;;;;;;19.39;40.80;101383.44;4112900;28;20009;-54
2023/06/03 04:58:54;;;;;;;;;;;;;;;19.38;40.87;101387.06;4114012;28;19926;-52
2023/06/03 05:00:56;;;;;;;;;;;;;;;19.37;40.90;101391.56;4113956;28;19972;-52
2023/06/03 05:02:59;;;;;;;;;;;;;;;19.37;40.91;101390.69;4113712;28;19926;-53
2023/06/03 05:05:01;;;;;;;;;;;;;;;19.37;40.88;101393.34;4113429;28;20017;-52
2023/06/03 05:07:03;;;;;;;;;;;;;;;19.35;40.87;101398.78;4112391;28;19930;-49
2023/06/03 05:09:05;;;;;;;;;;;;;;;19.35;40.97;101398.78;4113724;28;19966;-53
2023/06/03 05:11:07;;;;;;;;;;;;;;;19.35;40.92;101405.94;4113731;28;19979;-53
2023/06/03 05:13:08;;;;;;;;;;;;;;;19.34;40.91;101402.41;4114043;28;19926;-51
2023/06/03 05:15:10;;;;;;;;;;;;;;;19.33;41.00;101403.34;4113347;28;19927;-51
2023/06/03 05:17:12;;;;;;;;;;;;;;;19.33;40.78;101406.00;4111548;28;19980;-54
2023/06/03 05:19:13;;;;;;;;;;;;;;;19.33;40.68;101406.00;4113182;28;19930;-52
2023/06/03 05:21:19;;;;;;;;;;;;;;;19.33;40.81;101408.69;4113664;28;20358;-51
2023/06/03 05:23:20;;;;;;;;;;;;;;;19.33;40.62;101403.34;4113381;28;19926;-49
2023/06/03 05:25:25;;;;;;;;;;;;;;;19.33;40.80;101414.03;4113488;28;20040;-54
2023/06/03 05:27:26;;;;;;;;;;;;;;;19.31;40.90;101402.59;4112424;28;20013;-51
2023/06/03 05:29:28;;;;;;;;;;;;;;;19.32;40.70;101404.31;4113341;28;20017;-53
2023/06/03 05:31:29;;;;;;;;;;;;;;;19.31;41.15;101407.94;4113442;28;19926;-52
2023/06/03 05:33:32;;;;;;;;;;;;;;;19.31;40.73;101398.13;4114553;28;19933;-53
2023/06/03 05:35:33;;;;;;;;;;;;;;;19.30;41.10;101407.06;4129637;28;20314;-53
2023/06/03 05:37:35;;;;;;;;;;;;;;;19.29;40.95;101408.00;4128634;28;19926;-53
2023/06/03 05:39:37;;;;;;;;;;;;;;;19.28;41.03;101403.66;4113552;28;19927;-54
2023/06/03 05:41:38;;;;;;;;;;;;;;;19.29;41.04;101405.34;4113276;28;19983;-50
2023/06/03 05:43:42;;;;;;;;;;;;;;;19.29;40.85;101394.69;4113165;28;19930;-52
2023/06/03 05:45:43;;;;;;;;;;;;;;;19.28;40.98;101395.66;4113153;28;20419;-50
2023/06/03 05:47:45;;;;;;;;;;;;;;;19.28;41.27;101398.31;4112137;28;20392;-52
2023/06/03 05:49:47;;;;;;;;;;;;;;;19.28;40.83;101397.44;4112930;28;19961;-52
2023/06/03 05:51:48;;;;;;;;;;;;;;;19.27;41.08;101393.94;4113312;28;19933;-50
2023/06/03 05:53:50;;;;;;;;;;;;;;;19.27;41.09;101399.28;4113360;28;19969;-54
2023/06/03 05:55:52;;;;;;;;;;;;;;;19.26;40.93;101392.22;4113225;28;19937;-50
2023/06/03 05:57:54;;;;;;;;;;;;;;;19.26;41.05;101402.00;4112086;28;20438;-52
2023/06/03 05:59:55;;;;;;;;;;;;;;;19.26;40.93;101402.00;4113213;28;19950;-50
2023/06/03 06:01:57;;;;;;;;;;;;;;;19.25;41.15;101400.31;4112919;28;19933;-52
2023/06/03 06:03:59;;;;;;;;;;;;;;;19.25;41.00;101405.66;4112912;28;19926;-49
2023/06/03 06:06:01;;;;;;;;;;;;;;;19.24;40.98;101399.44;4112878;28;19930;-50
2023/06/03 06:08:02;;;;;;;;;;;;;;;19.25;41.17;101403.00;4112095;28;19934;-51
2023/06/03 06:10:04;;;;;;;;;;;;;;;19.24;41.14;101406.59;4112982;28;19930;-52
2023/06/03 06:12:06;;;;;;;;;;;;;;;19.25;41.12;101416.31;4113145;28;19938;-51
2023/06/03 06:14:07;;;;;;;;;;;;;;;19.25;41.25;101405.66;4113039;28;19926;-54
2023/06/03 06:16:09;;;;;;;;;;;;;;;19.23;41.12;101411.06;4112622;28;20012;-52
2023/06/03 06:18:11;;;;;;;;;;;;;;;19.23;40.99;101416.41;4112132;28;19927;-51
2023/06/03 06:20:13;;;;;;;;;;;;;;;19.24;41.16;101414.59;4111753;28;20418;-51
2023/06/03 06:22:14;;;;;;;;;;;;;;;19.23;41.01;101418.22;4112705;28;19926;-49
2023/06/03 06:24:16;;;;;;;;;;;;;;;19.24;41.05;101422.59;4113062;28;20383;-51
2023/06/03 06:26:18;;;;;;;;;;;;;;;19.23;41.08;101420.88;4111832;28;19926;-52
2023/06/03 06:28:26;;;;;;;;;;;;;;;19.23;40.94;101416.41;4112318;28;19926;-51
2023/06/03 06:30:28;;;;;;;;;;;;;;;19.24;41.01;101425.28;4112822;28;20021;-53
2023/06/03 06:32:30;;;;;;;;;;;;;;;19.24;40.98;101426.13;4112421;28;19932;-52
2023/06/03 06:34:33;;;;;;;;;;;;;;;19.24;40.94;101427.94;4162514;28;20048;-50
2023/06/03 06:36:42;;;;;;;;;;;;;;;19.24;41.13;101423.44;4195716;28;19929;-52
2023/06/03 06:38:43;;;;;;;;;;;;;;;19.24;40.92;101423.44;4183297;28;20364;-52
2023/06/03 06:40:45;;;;;;;;;;;;;;;19.24;40.97;101423.44;4112755;28;19926;-52
2023/06/03 06:42:47;;;;;;;;;;;;;;;19.23;41.08;101416.41;4112688;28;20406;-52
2023/06/03 06:44:50;;;;;;;;;;;;;;;19.24;40.93;101415.44;4112470;28;19930;-51
2023/06/03 06:46:54;;;;;;;;;;;;;;;19.25;41.06;101417.16;4111210;28;19926;-54
2023/06/03 06:48:57;;;;;;;;;;;;;;;19.25;41.06;101411.00;4112745;28;19950;-53
2023/06/03 06:50:59;;;;;;;;;;;;;;;19.26;40.97;101420.69;4112523;28;19926;-52
2023/06/03 06:53:01;;;;;;;;;;;;;;;19.25;41.13;101422.50;4112377;28;20021;-54
2023/06/03 06:55:05;;;;;;;;;;;;;;;19.26;42.34;101420.69;4112873;28;19930;-52
2023/06/03 06:57:06;;;;;;;;;;;;;;;19.27;42.23;101425.06;4111622;28;20008;-52
2023/06/03 06:59:08;;;;;;;;;;;;;;;19.27;42.08;101427.72;4112331;28;19930;-52
2023/06/03 07:01:10;;;;;;;;;;;;;;;19.28;42.34;101430.31;4114230;28;19957;-50
2023/06/03 07:03:15;;;;;;;;;;;;;;;19.30;42.24;101424.88;4115020;28;19926;-49
2023/06/03 07:05:17;;;;;;;;;;;;;;;19.34;42.70;101426.41;4115160;28;19933;-52
2023/06/03 07:07:19;;;;;;;;;;;;;;;19.37;42.20;101426.22;4114134;28;20028;-51
2023/06/03 07:09:20;;;;;;;;;;;;;;;19.41;42.07;101421.56;4115104;28;19944;-54
2023/06/03 07:11:22;;;;;;;;;;;;;;;19.43;42.32;101419.63;4115040;28;19927;-54
2023/06/03 07:13:24;;;;;;;;;;;;;;;19.46;42.28;101419.47;4146397;28;20448;-52
2023/06/03 07:15:26;;;;;;;;;;;;;;;19.48;42.35;101420.22;4114760;28;19934;-51
2023/06/03 07:17:27;;;;;;;;;;;;;;;19.50;42.37;101420.13;4113875;28;20020;-52
2023/06/03 07:19:33;;;;;;;;;;;;;;;19.53;42.05;101425.28;4114965;28;19932;-52
2023/06/03 07:21:35;;;;;;;;;;;;;;;19.56;42.08;101419.75;4115015;28;20025;-49
2023/06/03 07:23:36;;;;;;;;;;;;;;;19.57;42.03;101421.47;4114999;28;20285;-48
2023/06/03 07:25:45;;;;;;;;;;;;;;;19.57;41.80;101416.97;4146112;28;19926;-49
2023/06/03 07:27:47;;;;;;;;;;;;;;;19.58;41.98;101418.69;4114030;28;19937;-51
2023/06/03 07:29:48;;;;;;;;;;;;;;;19.60;42.02;101415.91;4114286;28;19934;-52
2023/06/03 07:31:50;;;;;;;;;;;;;;;19.61;41.84;101423.84;4113563;28;19934;-49
2023/06/03 07:33:54;;;;;;;;;;;;;;;19.62;41.77;101424.69;4119025;28;19955;-49
2023/06/03 07:35:58;;;;;;;;;;;;;;;19.62;41.95;101404.22;4131132;28;19926;-53
2023/06/03 07:38:00;;;;;;;;;;;;;;;19.63;41.92;101413.91;4126981;28;19938;-50
2023/06/03 07:40:07;;;;;;;;;;;;;;;19.64;41.97;101422.81;4114821;28;19927;-53
2023/06/03 07:42:20;;;;;;;;;;;;;;;19.66;41.68;101418.22;4114826;28;20004;-54
2023/06/03 07:44:37;;;;;;;;;;;;;;;19.67;41.99;101424.41;4114500;28;20229;-50
2023/06/03 07:46:45;;;;;;;;;;;;;;;19.68;41.92;101412.78;4113774;28;20020;-52
2023/06/03 07:48:47;;;;;;;;;;;;;;;19.68;41.75;101429.66;4114564;28;20329;-51
2023/06/03 07:50:49;;;;;;;;;;;;;;;19.69;41.85;101425.19;4114694;28;20421;-52
2023/06/03 07:52:54;;;;;;;;;;;;;;;19.69;41.86;101427.84;4114653;28;19927;-53
2023/06/03 07:54:55;;;;;;;;;;;;;;;19.71;41.48;101421.47;4114436;28;19938;-50
2023/06/03 07:56:57;;;;;;;;;;;;;;;19.72;41.59;101420.50;4113442;28;19954;-52
2023/06/03 07:59:03;;;;;;;;;;;;;;;19.72;41.75;101422.31;4113888;28;20330;-53
2023/06/03 08:01:04;;;;;;;;;;;;;;;19.71;41.77;101413.44;4114588;28;19926;-50
2023/06/03 08:03:07;;;;;;;;;;;;;;;19.72;41.76;101415.19;4114557;28;19926;-51
2023/06/03 08:05:08;;;;;;;;;;;;;;;19.75;41.65;101412.28;4114582;28;19926;-49
2023/06/03 08:07:10;;;;;;;;;;;;;;;19.76;41.62;101416.69;4113481;28;20020;-49
2023/06/03 08:09:17;;;;;;;;;;;;;;;19.76;41.88;101418.50;4114518;28;19926;-50
2023/06/03 08:11:18;;;;;;;;;;;;;;;19.77;41.60;101417.56;4114118;28;19926;-52
2023/06/03 08:13:20;;;;;;;;;;;;;;;19.79;41.65;101423.63;4114125;28;20471;-51
2023/06/03 08:15:26;;;;;;;;;;;;;;;19.79;41.56;101419.16;4114334;28;19980;-52
2023/06/03 08:17:39;;;;;;;;;;;;;;;19.80;41.61;101422.69;4113271;28;19926;-49
2023/06/03 08:19:45;;;;;;;;;;;;;;;19.77;41.74;101418.41;4114196;28;20017;-48
2023/06/03 08:21:48;;;;;;;;;;;;;;;19.78;41.96;101413.91;4114260;28;19926;-49
2023/06/03 08:23:49;;;;;;;;;;;;;;;19.77;41.69;101415.72;4113883;28;20311;-47
2023/06/03 08:25:51;;;;;;;;;;;;;;;19.79;41.61;101421.84;4114074;28;19926;-51
2023/06/03 08:27:52;;;;;;;;;;;;;;;19.78;41.55;101414.78;4112782;28;19926;-51
2023/06/03 08:29:57;;;;;;;;;;;;;;;19.80;41.74;101412.00;4113606;28;19926;-54
2023/06/03 08:31:59;;;;;;;;;;;;;;;19.81;41.65;101405.72;4114141;28;19932;-53
2023/06/03 08:34:03;;;;;;;;;;;;;;;19.82;41.66;101407.44;4119428;28;20418;-52
2023/06/03 08:36:05;;;;;;;;;;;;;;;19.80;41.39;101404.84;4130238;28;19972;-52
2023/06/03 08:38:07;;;;;;;;;;;;;;;19.83;41.74;101405.63;4125201;28;19933;-52
2023/06/03 08:40:09;;;;;;;;;;;;;;;19.84;41.77;101402.88;4114115;28;19934;-53
2023/06/03 08:42:16;;;;;;;;;;;;;;;19.85;41.90;101404.59;4113935;28;19926;-55
2023/06/03 08:44:21;;;;;;;;;;;;;;;19.86;41.34;101395.63;4114020;28;19926;-55
2023/06/03 08:46:26;;;;;;;;;;;;;;;19.89;41.69;101402.59;4113828;28;19941;-55
2023/06/03 08:48:28;;;;;;;;;;;;;;;19.89;41.68;101411.47;4111616;28;19933;-56
2023/06/03 08:50:31;;;;;;;;;;;;;;;19.90;41.56;101410.50;4110113;28;19957;-56
2023/06/03 08:52:33;;;;;;;;;;;;;;;19.91;41.86;101409.53;4112861;28;20362;-54
2023/06/03 08:54:35;;;;;;;;;;;;;;;19.92;41.61;101411.25;4112867;28;20460;-54
2023/06/03 08:56:42;;;;;;;;;;;;;;;19.93;41.71;101407.63;4097000;28;19930;-55
2023/06/03 08:58:48;;;;;;;;;;;;;;;19.95;41.45;101402.19;4097423;28;19933;-52
2023/06/03 09:00:55;;;;;;;;;;;;;;;19.95;41.78;101402.19;4097931;28;19926;-55
2023/06/03 09:02:57;;;;;;;;;;;;;;;19.96;41.70;101393.22;4098163;28;19950;-54
2023/06/03 09:05:01;;;;;;;;;;;;;;;19.98;41.84;101393.13;4097718;29;19927;-53
2023/06/03 09:07:03;;;;;;;;;;;;;;;20.00;41.46;101391.22;4096908;28;20068;-55
2023/06/03 09:09:08;;;;;;;;;;;;;;;20.02;41.74;101390.16;4097345;28;19927;-54
2023/06/03 09:11:10;;;;;;;;;;;;;;;20.04;41.68;101390.91;4116133;28;19924;-55
2023/06/03 09:13:14;;;;;;;;;;;;;;;20.06;41.56;101389.00;4110101;28;19934;-54
2023/06/03 09:15:15;;;;;;;;;;;;;;;20.09;41.66;101387.94;4176623;28;19924;-53
2023/06/03 09:17:17;;;;;;;;;;;;;;;20.11;41.78;101389.56;4096697;28;19961;-55
2023/06/03 09:19:19;;;;;;;;;;;;;;;20.11;41.76;101388.72;4115995;28;20414;-55
2023/06/03 09:21:21;;;;;;;;;;;;;;;20.14;41.99;101387.66;4113645;28;20407;-55
2023/06/03 09:23:22;;;;;;;;;;;;;;;20.17;41.63;101382.09;4113216;28;20013;-56
2023/06/03 09:25:24;;;;;;;;;;;;;;;20.16;41.61;101383.94;4112773;28;19930;-53
2023/06/03 09:27:26;;;;;;;;;;;;;;;20.15;41.66;101395.56;4116333;28;19972;-52
2023/06/03 09:29:27;;;;;;;;;;;;;;;20.20;41.86;101389.94;4104118;28;19927;-51
2023/06/03 09:31:29;;;;;;;;;;;;;;;20.16;41.40;101391.06;4112708;28;19953;-54
2023/06/03 09:33:31;;;;;;;;;;;;;;;20.19;41.58;101386.38;4108854;28;20008;-55
2023/06/03 09:35:33;;;;;;;;;;;;;;;20.23;41.75;101390.59;4112764;28;19937;-55
2023/06/03 09:37:35;;;;;;;;;;;;;;;20.26;41.76;101387.69;4111510;28;19926;-53
2023/06/03 09:39:37;;;;;;;;;;;;;;;20.29;41.53;101391.97;4194755;28;19924;-54
2023/06/03 09:41:39;;;;;;;;;;;;;;;20.30;41.52;101396.34;4113294;28;19930;-57
2023/06/03 09:44:02;;;;;;;;;;;;;;;20.31;41.72;101399.91;4105973;28;19930;-52
2023/06/03 09:46:10;;;;;;;;;;;;;;;20.35;41.67;101412.09;4105087;28;20050;-54
2023/06/03 09:48:11;;;;;;;;;;;;;;;20.33;41.71;101400.63;4110694;28;20399;-53
2023/06/03 09:50:13;;;;;;;;;;;;;;;20.34;41.83;101389.00;4111564;28;19934;-54
2023/06/03 09:52:30;;;;;;;;;;;;;;;20.34;41.76;101397.88;4112356;28;19926;-54
2023/06/03 09:54:31;;;;;;;;;;;;;;;20.37;42.24;101400.34;4107718;28;19926;-52
2023/06/03 09:56:33;;;;;;;;;;;;;;;20.39;42.19;101398.44;4096599;28;19931;-53
2023/06/03 09:58:34;;;;;;;;;;;;;;;20.39;41.95;101395.75;4126147;28;19926;-52
2023/06/03 10:00:49;;;;;;;;;;;;;;;20.41;42.22;101403.66;4108848;28;19926;-52
2023/06/03 10:03:03;;;;;;;;;;;;;;;20.41;42.24;101393.84;4111347;28;19934;-53
2023/06/03 10:05:24;;;;;;;;;;;;;;;20.41;42.19;101379.63;4112468;28;19933;-51
2023/06/03 10:07:26;;;;;;;;;;;;;;;20.44;42.29;101395.47;4110960;28;19926;-50
2023/06/03 10:09:28;;;;;;;;;;;;;;;20.47;42.41;101387.22;4110596;28;19930;-53
2023/06/03 10:11:44;;;;;;;;;;;;;;;20.49;42.29;101393.34;4112037;28;20029;-52
2023/06/03 10:13:46;;;;;;;;;;;;;;;20.51;42.45;101396.78;4112361;28;20013;-49
2023/06/03 10:15:48;;;;;;;;;;;;;;;20.53;42.24;101394.81;4112089;28;19965;-53
2023/06/03 10:17:50;;;;;;;;;;;;;;;20.55;42.01;101387.56;4111374;28;19926;-49
2023/06/03 10:19:51;;;;;;;;;;;;;;;20.56;42.29;101381.28;4122219;28;19927;-49
2023/06/03 10:21:54;;;;;;;;;;;;;;;20.57;42.20;101387.47;4111430;28;19934;-49
2023/06/03 10:23:57;;;;;;;;;;;;;;;20.59;42.11;101382.88;4105973;28;20025;-52
2023/06/03 10:25:59;;;;;;;;;;;;;;;20.61;41.84;101383.63;4110921;28;19930;-53
2023/06/03 10:28:01;;;;;;;;;;;;;;;20.64;42.19;101379.91;4110240;28;19927;-53
2023/06/03 10:30:03;;;;;;;;;;;;;;;20.64;41.72;101379.91;4107589;28;19956;-53